Time;durP1;ratioP1;P1;durP2;ratioP2;P2;SDS_P1;SDS_P2;PMS_P1;PMS_P2;Temp;Humidity;BMP_temperature;BMP_pressure;BME280_temperature;BME280_humidity;BME280_pressure;Samples;Min_cycle;Max_cycle;Signal;HPM_P1;HPM_P2
2022/12/11 00:00:18;;;;;;;17.42;9.30;;;2.80;84.50;;;;;;4971949;28;20370;-60
2022/12/11 00:02:44;;;;;;;15.55;9.98;;;2.80;84.50;;;;;;4972633;28;20050;-60
2022/12/11 00:05:10;;;;;;;16.45;10.32;;;2.80;84.50;;;;;;4971291;28;20034;-60
2022/12/11 00:07:35;;;;;;;19.20;10.85;;;2.80;84.70;;;;;;4973339;28;20382;-60
2022/12/11 00:10:02;;;;;;;23.75;10.48;;;2.70;84.80;;;;;;4970037;28;20035;-60
2022/12/11 00:12:31;;;;;;;14.90;9.70;;;2.70;84.90;;;;;;4971340;28;20081;-60
2022/12/11 00:14:57;;;;;;;19.17;8.77;;;2.70;84.90;;;;;;4970579;28;20031;-60
2022/12/11 00:17:23;;;;;;;15.13;7.40;;;2.70;85.00;;;;;;4973060;28;20054;-61
2022/12/11 00:19:48;;;;;;;18.20;8.40;;;2.80;85.00;;;;;;4970641;28;20431;-60
2022/12/11 00:22:15;;;;;;;18.83;7.97;;;2.70;84.80;;;;;;4971738;28;20045;-60
2022/12/11 00:24:41;;;;;;;11.88;8.13;;;2.80;84.90;;;;;;4972292;28;20109;-60
2022/12/11 00:27:07;;;;;;;11.50;7.80;;;2.80;84.70;;;;;;4951852;29;20122;-61
2022/12/11 00:29:32;;;;;;;25.10;9.80;;;2.80;84.80;;;;;;4965518;28;20031;-60
2022/12/11 00:31:58;;;;;;;17.58;9.43;;;2.90;84.80;;;;;;4970660;28;20033;-61
2022/12/11 00:34:24;;;;;;;21.75;8.35;;;2.90;84.70;;;;;;4970826;28;20129;-60
2022/12/11 00:36:49;;;;;;;13.48;8.43;;;2.80;84.70;;;;;;4972514;28;20042;-60
2022/12/11 00:39:15;;;;;;;24.48;10.07;;;2.80;84.70;;;;;;4972078;28;20105;-60
2022/12/11 00:41:41;;;;;;;13.18;8.45;;;2.80;85.30;;;;;;4972053;28;20466;-61
2022/12/11 00:44:07;;;;;;;22.88;9.00;;;2.80;84.80;;;;;;4971053;28;20054;-61
2022/12/11 00:46:32;;;;;;;20.65;9.35;;;2.90;84.90;;;;;;4973008;28;20121;-61
2022/12/11 00:48:58;;;;;;;17.65;9.13;;;2.90;84.80;;;;;;4971972;28;20055;-61
2022/12/11 00:51:24;;;;;;;19.35;10.52;;;2.90;84.60;;;;;;4969549;28;20128;-61
2022/12/11 00:53:50;;;;;;;11.38;6.13;;;2.90;84.70;;;;;;4970146;28;20033;-61
2022/12/11 00:56:21;;;;;;;12.38;8.15;;;3.00;84.80;;;;;;4972096;28;20639;-61
2022/12/11 00:58:47;;;;;;;17.33;9.05;;;3.00;84.70;;;;;;4968387;28;20039;-61
2022/12/11 01:01:24;;;;;;;16.15;7.40;;;3.00;84.70;;;;;;4970192;28;20026;-61
2022/12/11 01:03:50;;;;;;;13.95;7.70;;;3.00;84.60;;;;;;4971425;28;20383;-60
2022/12/11 01:06:19;;;;;;;15.77;9.05;;;2.90;84.50;;;;;;4970212;28;20118;-61
2022/12/11 01:08:46;;;;;;;13.77;6.88;;;2.90;84.70;;;;;;4971579;28;20038;-61
2022/12/11 01:11:14;;;;;;;14.00;8.30;;;2.90;84.80;;;;;;4968383;28;20086;-60
2022/12/11 01:13:40;;;;;;;13.57;8.07;;;3.00;84.80;;;;;;4971280;28;20038;-61
2022/12/11 01:16:12;;;;;;;9.98;7.80;;;3.00;84.70;;;;;;4971056;28;20038;-61
2022/12/11 01:18:38;;;;;;;12.50;7.68;;;3.00;84.80;;;;;;4969751;28;20039;-61
2022/12/11 01:21:06;;;;;;;13.73;8.00;;;2.90;84.70;;;;;;4962425;28;20494;-61
2022/12/11 01:23:32;;;;;;;11.10;7.07;;;3.00;84.80;;;;;;4970475;28;20023;-60
2022/12/11 01:26:13;;;;;;;13.48;7.60;;;3.00;84.90;;;;;;4971943;28;20041;-61
2022/12/11 01:28:39;;;;;;;11.98;8.60;;;3.00;84.70;;;;;;4970626;28;20469;-61
2022/12/11 01:31:09;;;;;;;11.73;7.18;;;3.10;84.70;;;;;;4970480;28;20034;-61
2022/12/11 01:33:35;;;;;;;12.85;8.50;;;3.10;84.70;;;;;;4967000;28;20031;-61
2022/12/11 01:36:05;;;;;;;17.13;7.57;;;3.10;84.70;;;;;;4965483;28;20146;-60
2022/12/11 01:38:30;;;;;;;15.57;9.40;;;3.10;84.60;;;;;;4971214;28;20371;-60
2022/12/11 01:40:56;;;;;;;15.45;7.53;;;3.10;84.60;;;;;;4967564;28;20113;-61
2022/12/11 01:43:22;;;;;;;19.33;8.18;;;3.10;84.50;;;;;;4965425;28;20122;-60
2022/12/11 01:45:48;;;;;;;14.48;7.35;;;3.10;84.60;;;;;;4968749;28;20133;-60
2022/12/11 01:48:19;;;;;;;15.60;7.40;;;3.20;84.70;;;;;;4968245;28;20034;-61
2022/12/11 01:50:52;;;;;;;17.77;8.80;;;3.10;84.50;;;;;;4968989;28;20490;-61
2022/12/11 01:53:42;;;;;;;11.88;7.30;;;3.20;84.60;;;;;;4969762;28;20751;-61
2022/12/11 01:56:09;;;;;;;17.83;8.40;;;3.20;84.70;;;;;;4970441;28;20537;-60
2022/12/11 01:58:49;;;;;;;18.02;7.80;;;3.20;84.90;;;;;;4967202;28;20562;-61
2022/12/11 02:01:32;;;;;;;18.27;8.32;;;3.20;84.60;;;;;;4958740;28;20442;-60
2022/12/11 02:03:57;;;;;;;15.45;9.13;;;3.20;84.60;;;;;;4967426;28;20030;-60
2022/12/11 02:06:41;;;;;;;14.30;9.20;;;3.10;84.50;;;;;;4967167;28;20038;-61
2022/12/11 02:09:12;;;;;;;14.90;9.00;;;3.20;84.60;;;;;;4969470;28;20030;-61
2022/12/11 02:11:55;;;;;;;15.55;8.30;;;3.10;84.60;;;;;;4970140;28;20586;-62
2022/12/11 02:14:51;;;;;;;16.55;8.23;;;3.10;84.50;;;;;;4968051;28;20023;-61
2022/12/11 02:17:28;;;;;;;15.27;8.18;;;3.10;84.60;;;;;;4969910;28;20031;-61
2022/12/11 02:20:07;;;;;;;19.83;8.02;;;3.00;84.80;;;;;;4968822;28;20035;-61
2022/12/11 02:22:32;;;;;;;14.32;8.85;;;3.10;84.90;;;;;;4970312;28;20031;-61
2022/12/11 02:25:07;;;;;;;15.95;7.93;;;3.00;84.90;;;;;;4969198;28;20031;-61
2022/12/11 02:27:55;;;;;;;15.55;8.05;;;3.10;84.80;;;;;;4969952;28;20138;-61
2022/12/11 02:30:22;;;;;;;18.42;8.60;;;3.10;84.70;;;;;;4968776;28;20073;-61
2022/12/11 02:32:53;;;;;;;16.02;8.82;;;3.00;84.80;;;;;;4966777;28;20433;-61
2022/12/11 02:35:30;;;;;;;13.40;8.33;;;3.10;84.90;;;;;;4968062;28;20031;-61
2022/12/11 02:38:28;;;;;;;17.20;8.05;;;3.10;84.90;;;;;;4967436;28;20196;-61
2022/12/11 02:40:56;;;;;;;14.93;7.93;;;3.10;84.80;;;;;;4959805;28;20438;-61
2022/12/11 02:43:23;;;;;;;17.60;8.18;;;3.10;84.70;;;;;;4966392;28;20039;-61
2022/12/11 02:45:50;;;;;;;14.00;7.82;;;3.10;84.60;;;;;;4966562;28;20039;-61
2022/12/11 02:48:17;;;;;;;9.85;7.53;;;3.10;84.80;;;;;;4968749;28;20039;-61
2022/12/11 02:50:46;;;;;;;13.48;7.07;;;3.10;84.80;;;;;;4965270;28;20065;-61
2022/12/11 02:53:14;;;;;;;16.95;6.97;;;3.10;84.80;;;;;;4967622;28;20023;-61
2022/12/11 02:55:42;;;;;;;14.95;7.85;;;3.10;84.70;;;;;;4970803;28;20481;-61
2022/12/11 02:58:21;;;;;;;14.02;7.35;;;3.20;84.80;;;;;;4968188;28;20746;-61
2022/12/11 03:00:46;;;;;;;17.45;9.48;;;3.20;84.80;;;;;;4966186;28;20427;-61
2022/12/11 03:03:12;;;;;;;16.88;9.20;;;3.10;84.70;;;;;;4970813;28;20031;-61
2022/12/11 03:05:40;;;;;;;15.40;8.57;;;3.10;84.90;;;;;;4968376;28;20035;-61
2022/12/11 03:08:06;;;;;;;12.60;7.35;;;3.10;85.00;;;;;;4969761;28;20557;-61
2022/12/11 03:10:32;;;;;;;13.43;6.50;;;3.10;85.00;;;;;;4969375;28;20062;-61
2022/12/11 03:12:59;;;;;;;11.27;6.93;;;3.10;85.00;;;;;;4970656;28;20107;-60
2022/12/11 03:15:47;;;;;;;14.75;7.78;;;3.20;85.00;;;;;;4967799;28;20022;-60
2022/12/11 03:18:37;;;;;;;16.05;8.55;;;3.20;84.90;;;;;;4973347;28;20077;-60
2022/12/11 03:21:13;;;;;;;18.65;8.80;;;3.20;85.00;;;;;;4969366;28;20039;-61
2022/12/11 03:24:00;;;;;;;16.15;8.13;;;3.10;85.10;;;;;;4973335;28;20502;-60
2022/12/11 03:26:28;;;;;;;13.05;6.18;;;3.20;85.10;;;;;;4973042;28;20146;-61
2022/12/11 03:28:59;;;;;;;15.13;7.57;;;3.10;85.10;;;;;;4989120;28;20046;-61
2022/12/11 03:31:33;;;;;;;16.83;6.93;;;3.10;85.00;;;;;;4972815;28;20054;-61
2022/12/11 03:34:02;;;;;;;19.55;8.35;;;3.20;85.10;;;;;;4974215;28;20023;-61
2022/12/11 03:36:36;;;;;;;13.70;8.30;;;3.20;85.00;;;;;;4972059;28;20026;-61
2022/12/11 03:39:15;;;;;;;13.05;7.85;;;3.20;85.00;;;;;;4973723;28;20046;-61
2022/12/11 03:41:44;;;;;;;11.60;6.47;;;3.30;85.00;;;;;;4972916;28;20026;-61
2022/12/11 03:44:11;;;;;;;17.98;8.57;;;3.30;84.90;;;;;;4973253;28;20085;-60
2022/12/11 03:46:39;;;;;;;16.17;9.55;;;3.30;84.80;;;;;;4971898;28;20038;-60
2022/12/11 03:49:11;;;;;;;14.30;8.70;;;3.30;84.80;;;;;;4972308;28;20146;-61
2022/12/11 03:51:39;;;;;;;11.43;8.00;;;3.30;84.70;;;;;;4964985;28;20557;-61
2022/12/11 03:54:06;;;;;;;16.40;8.95;;;3.30;84.80;;;;;;4972497;28;20105;-61
2022/12/11 03:56:34;;;;;;;25.33;9.05;;;3.30;84.90;;;;;;4972895;28;20034;-61
2022/12/11 03:59:00;;;;;;;16.70;8.10;;;3.30;85.00;;;;;;4970206;28;20031;-61
2022/12/11 04:01:26;;;;;;;21.67;9.63;;;3.30;84.90;;;;;;4954598;28;20045;-60
2022/12/11 04:03:52;;;;;;;14.27;7.30;;;3.30;84.80;;;;;;4972868;28;20035;-60
2022/12/11 04:06:17;;;;;;;13.43;7.63;;;3.30;84.80;;;;;;4961331;28;20035;-60
2022/12/11 04:08:43;;;;;;;14.05;7.70;;;3.40;84.80;;;;;;4973036;28;20045;-60
2022/12/11 04:16:38;;;;;;;21.92;10.25;;;3.30;84.70;;;;;;4970554;28;20046;-60
2022/12/11 04:24:33;;;;;;;16.00;8.13;;;3.40;84.90;;;;;;4973042;28;20093;-60
2022/12/11 04:26:59;;;;;;;15.20;8.93;;;3.40;84.90;;;;;;4972442;28;20031;-60
2022/12/11 04:29:25;;;;;;;19.52;9.35;;;3.40;84.80;;;;;;4970584;28;20420;-60
2022/12/11 04:31:50;;;;;;;18.23;9.70;;;3.40;84.80;;;;;;4972478;28;20478;-61
2022/12/11 04:34:16;;;;;;;14.70;8.15;;;3.40;84.80;;;;;;4971539;28;20454;-60
2022/12/11 04:36:42;;;;;;;11.55;7.70;;;3.40;85.30;;;;;;4970975;28;20030;-61
2022/12/11 04:39:08;;;;;;;17.98;9.48;;;3.40;85.40;;;;;;4971927;28;20043;-60
2022/12/11 04:41:34;;;;;;;19.77;8.70;;;3.40;84.70;;;;;;4972552;28;20098;-60
2022/12/11 04:44:00;;;;;;;20.73;9.30;;;3.40;84.80;;;;;;4971097;28;20041;-60
2022/12/11 04:46:25;;;;;;;19.33;9.60;;;3.40;84.70;;;;;;4971737;28;20035;-60
2022/12/11 04:48:52;;;;;;;12.27;7.72;;;3.40;84.80;;;;;;4972511;28;20031;-61
2022/12/11 04:51:18;;;;;;;15.40;8.52;;;3.40;84.80;;;;;;4971185;28;20026;-61
2022/12/11 04:53:45;;;;;;;16.00;9.15;;;3.50;84.70;;;;;;4970139;28;20022;-61
2022/12/11 04:56:13;;;;;;;13.35;7.25;;;3.50;84.80;;;;;;4970344;28;20333;-60
2022/12/11 04:58:40;;;;;;;15.55;8.38;;;3.50;84.70;;;;;;4964688;28;20081;-60
2022/12/11 05:01:12;;;;;;;14.40;8.90;;;3.50;84.70;;;;;;4961490;28;20031;-60
2022/12/11 05:03:38;;;;;;;13.15;7.80;;;3.50;84.70;;;;;;4971119;28;20037;-61
2022/12/11 05:06:04;;;;;;;14.15;7.97;;;3.50;84.60;;;;;;4969785;28;20035;-61
2022/12/11 05:08:29;;;;;;;18.15;8.52;;;3.50;84.70;;;;;;4972162;28;20062;-60
2022/12/11 05:10:56;;;;;;;15.88;8.98;;;3.50;84.70;;;;;;4970667;28;20053;-61
2022/12/11 05:13:22;;;;;;;15.73;8.50;;;3.60;84.70;;;;;;4970365;28;20085;-60
2022/12/11 05:15:47;;;;;;;12.82;7.82;;;3.60;84.70;;;;;;4981818;28;20031;-61
2022/12/11 05:18:13;;;;;;;18.83;8.50;;;3.60;84.60;;;;;;4969677;28;20035;-61
2022/12/11 05:20:39;;;;;;;11.00;7.22;;;3.50;84.50;;;;;;4969646;28;20038;-61
2022/12/11 05:23:04;;;;;;;14.65;8.50;;;3.50;84.60;;;;;;4970990;28;20069;-61
2022/12/11 05:25:30;;;;;;;13.57;8.35;;;3.50;84.60;;;;;;4971620;28;20030;-61
2022/12/11 05:27:58;;;;;;;17.88;9.50;;;3.50;84.60;;;;;;4969551;28;20105;-61
2022/12/11 05:30:24;;;;;;;16.20;8.48;;;3.40;84.80;;;;;;4970913;28;20472;-61
2022/12/11 05:32:49;;;;;;;19.80;9.30;;;3.40;84.80;;;;;;4968516;28;20109;-60
2022/12/11 05:35:15;;;;;;;14.05;7.50;;;3.40;84.80;;;;;;4970748;28;20457;-61
2022/12/11 05:37:41;;;;;;;18.55;9.73;;;3.50;84.80;;;;;;4971149;28;20552;-60
2022/12/11 05:40:07;;;;;;;16.38;9.18;;;3.40;84.70;;;;;;4970133;28;20031;-60
2022/12/11 05:42:33;;;;;;;19.95;9.93;;;3.50;84.70;;;;;;4970605;28;20402;-60
2022/12/11 05:44:59;;;;;;;16.42;9.57;;;3.50;84.70;;;;;;4971516;28;20536;-60
2022/12/11 05:47:25;;;;;;;22.60;9.15;;;3.40;84.60;;;;;;4971026;28;20038;-61
2022/12/11 05:49:51;;;;;;;16.30;9.73;;;3.40;84.60;;;;;;4969798;28;20486;-60
2022/12/11 05:52:16;;;;;;;15.23;10.55;;;3.40;84.70;;;;;;4968144;28;20031;-60
2022/12/11 05:54:42;;;;;;;16.60;8.70;;;3.40;84.70;;;;;;4970203;28;20059;-60
2022/12/11 05:57:08;;;;;;;13.65;9.82;;;3.40;84.80;;;;;;4965678;28;20063;-60
2022/12/11 05:59:33;;;;;;;15.48;8.25;;;3.40;84.80;;;;;;4970682;28;20401;-61
2022/12/11 06:01:59;;;;;;;13.82;7.82;;;3.40;84.70;;;;;;4968979;28;20065;-61
2022/12/11 06:04:25;;;;;;;19.52;9.55;;;3.40;84.60;;;;;;4969693;28;20035;-61
2022/12/11 06:06:53;;;;;;;18.38;10.00;;;3.40;84.50;;;;;;4969770;28;20031;-62
2022/12/11 06:09:19;;;;;;;18.25;9.63;;;3.40;84.60;;;;;;4970884;28;20504;-62
2022/12/11 06:11:44;;;;;;;17.40;8.25;;;3.50;84.60;;;;;;4969421;28;20110;-61
2022/12/11 06:14:11;;;;;;;15.75;9.48;;;3.50;84.60;;;;;;4970310;28;20019;-61
2022/12/11 06:16:37;;;;;;;9.65;7.18;;;3.50;84.40;;;;;;4970269;28;20046;-61
2022/12/11 06:19:02;;;;;;;13.23;8.43;;;3.50;84.40;;;;;;4971038;28;20031;-60
2022/12/11 06:21:31;;;;;;;18.15;8.52;;;3.50;84.30;;;;;;4968840;28;20035;-60
2022/12/11 06:23:59;;;;;;;18.20;9.88;;;3.40;84.40;;;;;;4970178;28;20038;-61
2022/12/11 06:26:26;;;;;;;21.52;10.35;;;3.40;84.50;;;;;;4970531;28;20031;-60
2022/12/11 06:28:52;;;;;;;14.70;7.88;;;3.40;84.50;;;;;;4969461;28;20034;-61
2022/12/11 06:31:18;;;;;;;14.45;8.93;;;3.50;84.50;;;;;;4970295;28;20034;-60
2022/12/11 06:33:44;;;;;;;13.43;8.45;;;3.40;84.40;;;;;;4968533;28;20049;-60
2022/12/11 06:36:17;;;;;;;14.55;9.63;;;3.40;84.30;;;;;;4970314;28;20553;-61
2022/12/11 06:38:43;;;;;;;16.38;9.00;;;3.40;84.40;;;;;;4968565;28;20176;-61
2022/12/11 06:41:10;;;;;;;13.35;9.30;;;3.30;84.50;;;;;;4970245;28;20039;-62
2022/12/11 06:43:37;;;;;;;12.02;8.77;;;3.30;84.60;;;;;;4970163;28;20030;-61
2022/12/11 06:46:05;;;;;;;11.73;8.43;;;3.40;84.70;;;;;;4969532;28;20054;-60
2022/12/11 06:48:31;;;;;;;11.95;7.93;;;3.40;84.70;;;;;;4969466;28;20047;-60
2022/12/11 06:50:57;;;;;;;20.30;8.60;;;3.40;84.60;;;;;;4969269;28;20100;-60
2022/12/11 06:53:22;;;;;;;15.48;9.55;;;3.40;84.50;;;;;;4973215;28;20027;-60
2022/12/11 06:55:48;;;;;;;12.70;8.10;;;3.40;84.30;;;;;;4973424;28;20106;-60
2022/12/11 06:58:14;;;;;;;16.27;8.93;;;3.40;84.20;;;;;;4972110;28;20031;-60
2022/12/11 07:00:39;;;;;;;12.60;8.80;;;3.30;84.30;;;;;;4969177;28;20030;-60
2022/12/11 07:03:05;;;;;;;17.40;8.80;;;3.30;84.40;;;;;;4973839;28;20038;-60
2022/12/11 07:05:32;;;;;;;19.25;8.95;;;3.30;84.50;;;;;;4972837;28;20126;-60
2022/12/11 07:07:58;;;;;;;11.85;8.05;;;3.30;84.50;;;;;;4972969;28;20386;-61
2022/12/11 07:10:24;;;;;;;11.27;7.75;;;3.30;84.40;;;;;;4973441;28;20026;-60
2022/12/11 07:12:53;;;;;;;12.65;9.23;;;3.30;84.90;;;;;;4974026;28;20026;-61
2022/12/11 07:15:19;;;;;;;11.45;7.22;;;3.40;84.20;;;;;;4973005;28;20074;-61
2022/12/11 07:17:44;;;;;;;10.18;6.00;;;3.30;84.10;;;;;;4955654;28;20437;-61
2022/12/11 07:20:10;;;;;;;13.00;7.45;;;3.30;84.20;;;;;;4968995;28;20042;-61
2022/12/11 07:22:36;;;;;;;8.88;6.68;;;3.30;84.20;;;;;;4964757;28;20086;-61
2022/12/11 07:25:02;;;;;;;13.02;7.93;;;3.30;84.10;;;;;;4957649;28;20027;-61
2022/12/11 07:27:28;;;;;;;10.10;6.43;;;3.30;84.00;;;;;;4962701;28;20031;-61
2022/12/11 07:29:54;;;;;;;11.15;6.78;;;3.30;84.20;;;;;;4970509;28;20030;-61
2022/12/11 07:32:20;;;;;;;11.82;7.95;;;3.30;84.20;;;;;;4964377;28;20077;-61
2022/12/11 07:34:47;;;;;;;10.27;7.22;;;3.30;84.10;;;;;;4965248;28;20620;-60
2022/12/11 07:37:13;;;;;;;12.45;6.95;;;3.30;84.00;;;;;;4971408;28;20163;-60
2022/12/11 07:39:39;;;;;;;11.57;7.35;;;3.20;84.00;;;;;;4972452;28;20110;-60
2022/12/11 07:42:04;;;;;;;14.05;6.38;;;3.20;84.10;;;;;;4972553;28;20382;-60
2022/12/11 07:44:30;;;;;;;9.43;5.25;;;3.20;84.10;;;;;;4973454;28;20046;-60
2022/12/11 07:46:56;;;;;;;9.85;7.20;;;3.30;84.10;;;;;;4971159;28;20105;-60
2022/12/11 07:49:22;;;;;;;11.05;6.88;;;3.20;83.80;;;;;;4972618;28;20399;-59
2022/12/11 07:51:48;;;;;;;10.98;6.93;;;3.20;83.90;;;;;;4972510;28;20115;-59
2022/12/11 07:54:17;;;;;;;14.52;6.53;;;3.20;84.00;;;;;;4972470;28;20033;-59
2022/12/11 07:56:44;;;;;;;7.75;5.47;;;3.20;84.00;;;;;;4968983;28;20874;-58
2022/12/11 07:59:10;;;;;;;12.50;6.15;;;3.20;84.00;;;;;;4970313;28;20050;-60
2022/12/11 08:01:36;;;;;;;8.23;6.32;;;3.30;83.90;;;;;;4964889;28;20489;-59
2022/12/11 08:04:08;;;;;;;10.70;6.80;;;3.30;83.90;;;;;;4970017;28;20049;-59
2022/12/11 08:06:36;;;;;;;9.20;6.33;;;3.30;83.70;;;;;;4972058;28;20433;-62
2022/12/11 08:09:08;;;;;;;10.88;5.82;;;3.30;83.60;;;;;;4966611;28;20291;-57
2022/12/11 08:11:34;;;;;;;11.95;6.82;;;3.30;83.60;;;;;;4964641;28;20381;-58
2022/12/11 08:14:00;;;;;;;10.75;5.93;;;3.30;83.70;;;;;;4966419;28;20035;-58
2022/12/11 08:16:26;;;;;;;8.20;6.20;;;3.30;83.60;;;;;;4971894;28;20094;-60
2022/12/11 08:18:52;;;;;;;7.53;5.43;;;3.30;83.70;;;;;;4956992;28;20031;-58
2022/12/11 08:21:24;;;;;;;7.05;4.88;;;3.30;83.80;;;;;;4975353;28;20399;-58
2022/12/11 08:23:51;;;;;;;8.40;5.80;;;3.30;83.70;;;;;;4958509;28;20500;-60
2022/12/11 08:26:19;;;;;;;7.30;5.55;;;3.40;83.60;;;;;;4969130;28;20022;-59
2022/12/11 08:28:45;;;;;;;10.55;5.57;;;3.30;83.40;;;;;;4971880;28;20026;-59
2022/12/11 08:31:12;;;;;;;7.20;4.53;;;3.30;83.50;;;;;;4969500;28;20102;-60
2022/12/11 08:33:38;;;;;;;10.48;5.40;;;3.30;83.60;;;;;;4970472;28;20422;-61
2022/12/11 08:36:07;;;;;;;8.55;5.93;;;3.30;83.50;;;;;;4961408;28;20035;-59
2022/12/11 08:38:33;;;;;;;8.80;5.00;;;3.30;83.50;;;;;;4971295;28;20027;-59
2022/12/11 08:41:07;;;;;;;8.68;5.75;;;3.30;83.40;;;;;;4967463;28;20033;-59
2022/12/11 08:43:33;;;;;;;14.27;5.63;;;3.30;83.30;;;;;;4972026;28;20109;-58
2022/12/11 08:45:58;;;;;;;9.68;5.97;;;3.20;83.90;;;;;;4967205;28;20465;-59
2022/12/11 08:48:24;;;;;;;6.82;4.60;;;3.30;83.50;;;;;;4966687;28;20050;-58
2022/12/11 08:50:50;;;;;;;6.20;4.55;;;3.20;83.50;;;;;;4966204;28;20047;-58
2022/12/11 08:53:16;;;;;;;7.25;5.07;;;3.30;83.40;;;;;;4971994;28;20031;-58
2022/12/11 08:55:41;;;;;;;8.38;5.45;;;3.30;83.40;;;;;;4972249;28;20082;-60
2022/12/11 08:58:07;;;;;;;9.45;5.38;;;3.30;83.30;;;;;;4970882;28;20122;-60
2022/12/11 09:00:32;;;;;;;7.07;4.57;;;3.30;83.30;;;;;;4969381;28;20031;-61
2022/12/11 09:02:58;;;;;;;6.97;4.78;;;3.40;83.80;;;;;;4971128;28;20085;-60
2022/12/11 09:05:24;;;;;;;7.85;5.30;;;3.30;83.10;;;;;;4968693;28;20867;-59
2022/12/11 09:07:50;;;;;;;11.45;6.25;;;3.40;83.20;;;;;;4970634;28;20046;-59
2022/12/11 09:10:15;;;;;;;7.90;5.10;;;3.40;83.20;;;;;;4968958;28;20118;-58
2022/12/11 09:12:41;;;;;;;9.63;5.05;;;3.40;83.20;;;;;;4967139;28;20351;-58
2022/12/11 09:15:07;;;;;;;7.45;5.18;;;3.40;83.00;;;;;;4970093;28;20030;-62
2022/12/11 09:17:34;;;;;;;12.70;6.25;;;3.40;82.80;;;;;;4965024;28;20037;-58
2022/12/11 09:20:00;;;;;;;6.97;4.07;;;3.40;82.70;;;;;;4957257;28;20038;-59
2022/12/11 09:22:26;;;;;;;8.18;5.30;;;3.30;82.70;;;;;;4968822;28;20136;-59
2022/12/11 09:24:52;;;;;;;11.10;5.85;;;3.30;82.90;;;;;;4967915;28;20118;-59
2022/12/11 09:27:20;;;;;;;7.03;4.40;;;3.30;82.90;;;;;;4969637;28;20438;-59
2022/12/11 09:29:45;;;;;;;5.43;4.45;;;3.30;82.80;;;;;;4964770;28;20098;-59
2022/12/11 09:32:11;;;;;;;7.20;4.70;;;3.40;82.80;;;;;;4968978;28;20023;-59
2022/12/11 09:34:37;;;;;;;7.18;4.70;;;3.40;82.80;;;;;;4971411;28;20492;-59
2022/12/11 09:37:02;;;;;;;9.27;5.47;;;3.40;82.80;;;;;;4971282;28;20023;-59
2022/12/11 09:39:28;;;;;;;10.07;5.57;;;3.50;82.70;;;;;;4966623;28;20043;-59
2022/12/11 09:42:02;;;;;;;6.75;4.68;;;3.50;82.60;;;;;;4971640;28;20096;-59
2022/12/11 09:44:44;;;;;;;4.68;4.15;;;3.50;82.60;;;;;;4969904;28;20061;-59
2022/12/11 09:47:31;;;;;;;9.85;5.07;;;3.50;82.60;;;;;;4971372;28;20110;-59
2022/12/11 09:50:03;;;;;;;7.72;4.97;;;3.60;82.50;;;;;;4969955;28;20046;-59
2022/12/11 09:52:37;;;;;;;7.55;4.03;;;3.60;82.50;;;;;;4970745;28;20023;-59
2022/12/11 09:55:14;;;;;;;5.15;4.65;;;3.60;82.50;;;;;;4971241;28;20034;-59
2022/12/11 09:57:42;;;;;;;4.57;3.80;;;3.60;82.60;;;;;;4971743;28;20182;-59
2022/12/11 10:00:14;;;;;;;5.55;4.10;;;3.60;82.60;;;;;;4968341;28;20035;-59
2022/12/11 10:02:48;;;;;;;6.28;4.90;;;3.70;82.60;;;;;;4970257;28;20075;-59
2022/12/11 10:05:42;;;;;;;8.30;4.50;;;3.60;82.50;;;;;;4969663;28;20035;-59
2022/12/11 10:08:21;;;;;;;9.45;5.38;;;3.60;82.40;;;;;;4964371;28;20031;-59
2022/12/11 10:11:21;;;;;;;8.60;5.75;;;3.50;82.50;;;;;;4970417;28;20085;-59
2022/12/11 10:13:57;;;;;;;8.00;4.75;;;3.50;82.40;;;;;;4970914;28;20103;-59
2022/12/11 10:16:45;;;;;;;8.57;3.90;;;3.50;82.60;;;;;;4980780;28;20118;-60
2022/12/11 10:19:26;;;;;;;6.28;5.18;;;3.60;82.50;;;;;;4969694;28;20098;-59
2022/12/11 10:21:53;;;;;;;7.90;5.20;;;3.60;82.50;;;;;;4970470;28;20030;-59
2022/12/11 10:24:43;;;;;;;6.47;4.43;;;3.70;82.50;;;;;;4969880;28;20046;-59
2022/12/11 10:27:19;;;;;;;8.32;4.85;;;3.70;82.30;;;;;;4970436;28;20106;-59
2022/12/11 10:29:47;;;;;;;7.57;5.05;;;3.70;82.30;;;;;;4970707;28;20491;-59
2022/12/11 10:32:26;;;;;;;7.22;5.03;;;3.70;82.40;;;;;;4963119;28;20031;-59
2022/12/11 10:35:01;;;;;;;10.90;6.57;;;3.70;82.40;;;;;;4963597;28;20756;-59
2022/12/11 10:37:27;;;;;;;8.95;5.03;;;3.70;82.20;;;;;;4970277;28;20495;-57
2022/12/11 10:39:53;;;;;;;9.48;5.80;;;3.70;82.20;;;;;;4970225;28;20023;-58
2022/12/11 10:42:21;;;;;;;7.95;6.15;;;3.70;82.20;;;;;;4969826;28;20038;-58
2022/12/11 10:45:04;;;;;;;8.70;5.20;;;3.70;82.20;;;;;;4968558;28;20509;-58
2022/12/11 10:47:32;;;;;;;9.25;4.80;;;3.70;82.00;;;;;;4965859;28;20033;-59
2022/12/11 10:50:02;;;;;;;6.00;5.03;;;3.70;82.10;;;;;;4968847;28;20043;-58
2022/12/11 10:52:42;;;;;;;7.88;5.45;;;3.80;82.10;;;;;;4968427;28;20113;-58
2022/12/11 10:55:26;;;;;;;10.90;5.05;;;3.80;82.10;;;;;;4974605;28;20031;-58
2022/12/11 10:57:58;;;;;;;4.65;3.90;;;3.80;81.90;;;;;;4969221;28;20034;-59
2022/12/11 11:00:36;;;;;;;;;;;3.80;81.90;;;;;;4968830;28;20559;-59
2022/12/11 11:03:03;;;;;;;9.23;5.30;;;3.80;81.80;;;;;;4970655;28;20401;-59
2022/12/11 11:05:33;;;;;;;6.97;5.38;;;3.70;81.90;;;;;;4960439;28;20363;-59
2022/12/11 11:08:20;;;;;;;9.82;5.55;;;3.80;82.00;;;;;;4969424;28;20038;-58
2022/12/11 11:11:00;;;;;;;7.93;4.95;;;3.90;81.90;;;;;;4971537;28;20114;-58
2022/12/11 11:13:31;;;;;;;20.88;5.43;;;3.80;81.70;;;;;;4970503;28;20438;-59
2022/12/11 11:16:11;;;;;;;9.57;4.90;;;3.80;81.90;;;;;;4971846;28;20057;-59
2022/12/11 11:18:39;;;;;;;8.23;5.15;;;3.80;81.90;;;;;;4967533;28;20050;-58
2022/12/11 11:21:06;;;;;;;11.65;5.57;;;3.90;82.00;;;;;;4968485;28;20110;-58
2022/12/11 11:23:33;;;;;;;6.55;4.30;;;3.90;82.00;;;;;;4968843;28;20553;-57
2022/12/11 11:26:07;;;;;;;9.00;5.25;;;3.80;81.80;;;;;;4967161;28;20050;-58
2022/12/11 11:28:37;;;;;;;7.93;4.70;;;3.80;81.90;;;;;;4966185;28;20168;-59
2022/12/11 11:31:14;;;;;;;7.15;4.70;;;3.80;82.10;;;;;;4969319;28;20027;-62
2022/12/11 11:33:55;;;;;;;10.38;4.90;;;3.80;81.90;;;;;;4970452;28;20023;-62
2022/12/11 11:36:23;;;;;;;7.68;5.07;;;3.80;81.90;;;;;;4968641;28;20030;-62
2022/12/11 11:39:09;;;;;;;6.80;4.75;;;3.80;81.90;;;;;;4970840;28;20508;-62
2022/12/11 11:41:46;;;;;;;8.77;5.22;;;3.90;82.00;;;;;;4971954;28;20038;-62
2022/12/11 11:44:18;;;;;;;12.02;5.95;;;3.90;81.90;;;;;;4971592;28;20042;-61
2022/12/11 11:46:48;;;;;;;9.13;5.45;;;3.80;81.70;;;;;;4969380;28;20118;-62
2022/12/11 11:49:38;;;;;;;8.90;6.15;;;3.80;82.50;;;;;;4960947;28;20130;-62
2022/12/11 11:52:26;;;;;;;7.65;5.22;;;3.80;82.00;;;;;;4964602;28;20061;-61
2022/12/11 11:55:38;;;;;;;8.30;5.72;;;3.80;81.90;;;;;;4972490;28;20819;-62
2022/12/11 11:58:14;;;;;;;11.50;7.05;;;3.90;82.40;;;;;;4968116;28;20067;-62
2022/12/11 12:00:40;;;;;;;8.65;4.45;;;3.90;81.90;;;;;;4968263;28;20042;-61
2022/12/11 12:03:13;;;;;;;4.07;3.67;;;3.90;81.80;;;;;;4961717;28;20045;-60
2022/12/11 12:05:58;;;;;;;9.57;6.50;;;3.90;81.80;;;;;;4986722;28;20093;-58
2022/12/11 12:08:49;;;;;;;9.38;6.57;;;3.90;81.70;;;;;;4971679;28;20066;-58
2022/12/11 12:11:20;;;;;;;10.85;6.10;;;3.90;81.60;;;;;;4970368;28;20030;-57
2022/12/11 12:14:04;;;;;;;10.07;6.13;;;3.80;81.40;;;;;;4971872;28;20045;-58
2022/12/11 12:16:42;;;;;;;7.85;5.22;;;3.70;81.60;;;;;;4966232;28;20030;-58
2022/12/11 12:19:45;;;;;;;6.53;4.60;;;3.70;81.70;;;;;;4970301;28;20085;-58
2022/12/11 12:22:52;;;;;;;7.72;5.20;;;3.80;81.60;;;;;;4970644;28;20053;-58
2022/12/11 12:25:37;;;;;;;10.68;6.72;;;3.80;81.80;;;;;;4959957;28;20043;-58
2022/12/11 12:28:14;;;;;;;8.40;4.78;;;3.80;81.70;;;;;;4967151;28;20031;-57
2022/12/11 12:31:05;;;;;;;13.43;5.15;;;3.80;81.70;;;;;;4960816;28;20039;-57
2022/12/11 12:33:51;;;;;;;9.35;6.95;;;3.80;81.50;;;;;;4969779;28;20031;-64
2022/12/11 12:36:43;;;;;;;9.95;5.28;;;3.80;81.60;;;;;;4969917;28;20026;-57
2022/12/11 12:39:21;;;;;;;6.85;4.63;;;3.80;81.60;;;;;;4966263;28;20098;-65
2022/12/11 12:41:52;;;;;;;6.57;4.47;;;3.80;81.60;;;;;;4969969;28;20054;-58
2022/12/11 12:44:20;;;;;;;11.02;5.75;;;3.80;81.50;;;;;;4970958;28;20034;-59
2022/12/11 12:47:08;;;;;;;6.32;4.32;;;3.80;81.40;;;;;;4970773;28;20073;-66
2022/12/11 12:49:41;;;;;;;8.95;4.72;;;3.80;81.60;;;;;;4959560;28;20494;-67
2022/12/11 12:52:24;;;;;;;7.20;5.15;;;3.80;81.70;;;;;;4962701;28;20433;-67
2022/12/11 12:55:12;;;;;;;10.13;5.05;;;3.80;81.70;;;;;;4969382;28;20054;-67
2022/12/11 12:57:59;;;;;;;6.45;4.28;;;3.80;81.70;;;;;;4970502;28;20027;-66
2022/12/11 13:00:30;;;;;;;8.57;5.57;;;3.80;81.60;;;;;;4967658;28;20030;-60
2022/12/11 13:02:59;;;;;;;6.68;4.50;;;3.70;81.50;;;;;;4967467;28;20039;-66
2022/12/11 13:05:31;;;;;;;10.68;5.85;;;3.70;81.70;;;;;;4968386;28;20046;-59
2022/12/11 13:08:03;;;;;;;8.63;5.07;;;3.70;81.80;;;;;;4971062;28;20027;-67
2022/12/11 13:10:35;;;;;;;11.65;5.65;;;3.70;81.70;;;;;;4967372;28;20031;-67
2022/12/11 13:13:02;;;;;;;9.23;5.60;;;3.70;81.70;;;;;;4967354;28;20145;-67
2022/12/11 13:15:41;;;;;;;6.95;5.07;;;3.80;81.70;;;;;;4970478;28;20702;-67
2022/12/11 13:18:34;;;;;;;10.52;4.95;;;3.80;81.60;;;;;;4970143;28;20038;-67